sensor_id;sensor_type;location;lat;lon;timestamp;pressure;altitude;pressure_sealevel;temperature;humidity
37298;BME280;30517;51.932;4.278;2023-03-04T00:00:32;149866.81;;;37.14;0.00
37298;BME280;30517;51.932;4.278;2023-03-04T00:03:13;150213.47;;;37.07;0.00
37298;BME280;30517;51.932;4.278;2023-03-04T00:05:57;150220.22;;;37.07;0.00
37298;BME280;30517;51.932;4.278;2023-03-04T00:08:37;150585.38;;;36.99;0.00
37298;BME280;30517;51.932;4.278;2023-03-04T00:11:18;150077.38;;;37.10;0.00
37298;BME280;30517;51.932;4.278;2023-03-04T00:13:59;149867.75;;;37.15;0.00
37298;BME280;30517;51.932;4.278;2023-03-04T00:16:42;149893.84;;;37.14;0.00
37298;BME280;30517;51.932;4.278;2023-03-04T00:19:23;150084.13;;;37.10;0.00
37298;BME280;30517;51.932;4.278;2023-03-04T00:22:04;150187.41;;;37.07;0.00
37298;BME280;30517;51.932;4.278;2023-03-04T00:24:45;150279.97;;;37.06;0.00
37298;BME280;30517;51.932;4.278;2023-03-04T00:27:25;149867.75;;;37.15;0.00
37298;BME280;30517;51.932;4.278;2023-03-04T00:30:07;149907.34;;;37.14;0.00
37298;BME280;30517;51.932;4.278;2023-03-04T00:32:48;149920.84;;;37.14;0.00
37298;BME280;30517;51.932;4.278;2023-03-04T00:35:28;150226.97;;;37.07;0.00
37298;BME280;30517;51.932;4.278;2023-03-04T00:38:09;149907.34;;;37.14;0.00
37298;BME280;30517;51.932;4.278;2023-03-04T00:40:51;149893.84;;;37.14;0.00
37298;BME280;30517;51.932;4.278;2023-03-04T00:43:32;149932.53;;;37.13;0.00
37298;BME280;30517;51.932;4.278;2023-03-04T00:46:13;149946.03;;;37.13;0.00
37298;BME280;30517;51.932;4.278;2023-03-04T00:48:53;149925.78;;;37.13;0.00
37298;BME280;30517;51.932;4.278;2023-03-04T00:51:34;149925.78;;;37.13;0.00
37298;BME280;30517;51.932;4.278;2023-03-04T00:54:15;149913.19;;;37.13;0.00
37298;BME280;30517;51.932;4.278;2023-03-04T00:56:56;150344.56;;;37.04;0.00
37298;BME280;30517;51.932;4.278;2023-03-04T00:59:36;149906.44;;;37.13;0.00
37298;BME280;30517;51.932;4.278;2023-03-04T01:02:17;150247.16;;;37.06;0.00
37298;BME280;30517;51.932;4.278;2023-03-04T01:04:58;150344.63;;;37.05;0.00
37298;BME280;30517;51.932;4.278;2023-03-04T01:07:39;149893.84;;;37.14;0.00
37298;BME280;30517;51.932;4.278;2023-03-04T01:10:20;149991.44;;;37.12;0.00
37298;BME280;30517;51.932;4.278;2023-03-04T01:13:01;149893.84;;;37.14;0.00
37298;BME280;30517;51.932;4.278;2023-03-04T01:15:41;150274.19;;;37.06;0.00
37298;BME280;30517;51.932;4.278;2023-03-04T01:18:23;150247.16;;;37.06;0.00
37298;BME280;30517;51.932;4.278;2023-03-04T01:21:04;149906.44;;;37.13;0.00
37298;BME280;30517;51.932;4.278;2023-03-04T01:23:45;149906.44;;;37.13;0.00
37298;BME280;30517;51.932;4.278;2023-03-04T01:26:26;149951.84;;;37.12;0.00
37298;BME280;30517;51.932;4.278;2023-03-04T01:29:07;149977.94;;;37.12;0.00
37298;BME280;30517;51.932;4.278;2023-03-04T01:31:48;149951.84;;;37.12;0.00
37298;BME280;30517;51.932;4.278;2023-03-04T01:34:28;150310.84;;;37.05;0.00
37298;BME280;30517;51.932;4.278;2023-03-04T01:37:10;149924.84;;;37.12;0.00
37298;BME280;30517;51.932;4.278;2023-03-04T01:39:52;149839.81;;;37.14;0.00
37298;BME280;30517;51.932;4.278;2023-03-04T01:42:34;149904.59;;;37.12;0.00
37298;BME280;30517;51.932;4.278;2023-03-04T01:45:17;149872.66;;;37.13;0.00
37298;BME280;30517;51.932;4.278;2023-03-04T01:47:58;149885.25;;;37.13;0.00
37298;BME280;30517;51.932;4.278;2023-03-04T01:50:39;149924.84;;;37.12;0.00
37298;BME280;30517;51.932;4.278;2023-03-04T01:53:25;149944.16;;;37.11;0.00
37298;BME280;30517;51.932;4.278;2023-03-04T01:56:33;150087.06;;;37.08;0.00
37298;BME280;30517;51.932;4.278;2023-03-04T01:59:20;149799.31;;;37.14;0.00
37298;BME280;30517;51.932;4.278;2023-03-04T02:02:01;149824.47;;;37.13;0.00
37298;BME280;30517;51.932;4.278;2023-03-04T02:04:42;149944.16;;;37.11;0.00
37298;BME280;30517;51.932;4.278;2023-03-04T02:07:23;149890.16;;;37.11;0.00
37298;BME280;30517;51.932;4.278;2023-03-04T02:10:04;149902.72;;;37.11;0.00
37298;BME280;30517;51.932;4.278;2023-03-04T02:12:45;150220.97;;;37.03;0.00
37298;BME280;30517;51.932;4.278;2023-03-04T02:15:27;149863.13;;;37.11;0.00
37298;BME280;30517;51.932;4.278;2023-03-04T02:18:20;149863.13;;;37.11;0.00
37298;BME280;30517;51.932;4.278;2023-03-04T02:21:12;149875.69;;;37.11;0.00
37298;BME280;30517;51.932;4.278;2023-03-04T02:24:28;149961.59;;;37.10;0.00
37298;BME280;30517;51.932;4.278;2023-03-04T02:27:10;149894.09;;;37.10;0.00
37298;BME280;30517;51.932;4.278;2023-03-04T02:29:51;149972.25;;;37.08;0.00
37298;BME280;30517;51.932;4.278;2023-03-04T02:32:32;149888.28;;;37.10;0.00
37298;BME280;30517;51.932;4.278;2023-03-04T02:35:16;149887.31;;;37.10;0.00
37298;BME280;30517;51.932;4.278;2023-03-04T02:37:57;150864.84;;;36.89;0.00
37298;BME280;30517;51.932;4.278;2023-03-04T02:40:40;149847.75;;;37.10;0.00
37298;BME280;30517;51.932;4.278;2023-03-04T02:43:22;149802.34;;;37.11;0.00
37298;BME280;30517;51.932;4.278;2023-03-04T02:46:03;149853.56;;;37.10;0.00
37298;BME280;30517;51.932;4.278;2023-03-04T02:48:45;149899.84;;;37.09;0.00
37298;BME280;30517;51.932;4.278;2023-03-04T02:51:25;149834.22;;;37.10;0.00
37298;BME280;30517;51.932;4.278;2023-03-04T02:54:16;149847.75;;;37.10;0.00
37298;BME280;30517;51.932;4.278;2023-03-04T02:57:00;149808.16;;;37.11;0.00
37298;BME280;30517;51.932;4.278;2023-03-04T02:59:42;149795.59;;;37.11;0.00
37298;BME280;30517;51.932;4.278;2023-03-04T03:02:23;149964.50;;;37.07;0.00
37298;BME280;30517;51.932;4.278;2023-03-04T03:05:04;149841.00;;;37.10;0.00
37298;BME280;30517;51.932;4.278;2023-03-04T03:07:45;150192.97;;;37.03;0.00
37298;BME280;30517;51.932;4.278;2023-03-04T03:10:26;149879.59;;;37.09;0.00
37298;BME280;30517;51.932;4.278;2023-03-04T03:13:07;149834.22;;;37.10;0.00
37298;BME280;30517;51.932;4.278;2023-03-04T03:15:48;149925.94;;;37.09;0.00
37298;BME280;30517;51.932;4.278;2023-03-04T03:18:28;149860.28;;;37.10;0.00
37298;BME280;30517;51.932;4.278;2023-03-04T03:21:09;149873.78;;;37.10;0.00
37298;BME280;30517;51.932;4.278;2023-03-04T03:23:50;149925.94;;;37.09;0.00
37298;BME280;30517;51.932;4.278;2023-03-04T03:26:31;149990.56;;;37.07;0.00
37298;BME280;30517;51.932;4.278;2023-03-04T03:29:12;149998.19;;;37.07;0.00
37298;BME280;30517;51.932;4.278;2023-03-04T03:31:52;149898.91;;;37.09;0.00
37298;BME280;30517;51.932;4.278;2023-03-04T03:34:33;149886.34;;;37.09;0.00
37298;BME280;30517;51.932;4.278;2023-03-04T03:37:14;149834.22;;;37.10;0.00
37298;BME280;30517;51.932;4.278;2023-03-04T03:39:55;149945.22;;;37.08;0.00
37298;BME280;30517;51.932;4.278;2023-03-04T03:42:36;150121.63;;;37.04;0.00
37298;BME280;30517;51.932;4.278;2023-03-04T03:45:16;149924.97;;;37.08;0.00
37298;BME280;30517;51.932;4.278;2023-03-04T03:47:57;149958.72;;;37.08;0.00
37298;BME280;30517;51.932;4.278;2023-03-04T03:50:38;150025.19;;;37.07;0.00
37298;BME280;30517;51.932;4.278;2023-03-04T03:53:19;149965.44;;;37.08;0.00
37298;BME280;30517;51.932;4.278;2023-03-04T03:56:00;149998.19;;;37.07;0.00
37298;BME280;30517;51.932;4.278;2023-03-04T03:58:40;149956.78;;;37.07;0.00
37298;BME280;30517;51.932;4.278;2023-03-04T04:01:21;149878.66;;;37.09;0.00
37298;BME280;30517;51.932;4.278;2023-03-04T04:04:02;149951.00;;;37.07;0.00
37298;BME280;30517;51.932;4.278;2023-03-04T04:06:43;150335.34;;;36.99;0.00
37298;BME280;30517;51.932;4.278;2023-03-04T04:09:24;149977.06;;;37.07;0.00
37298;BME280;30517;51.932;4.278;2023-03-04T04:12:05;149912.41;;;37.09;0.00
37298;BME280;30517;51.932;4.278;2023-03-04T04:14:46;150049.31;;;37.05;0.00
37298;BME280;30517;51.932;4.278;2023-03-04T04:17:27;150102.38;;;37.05;0.00
37298;BME280;30517;51.932;4.278;2023-03-04T04:20:08;150916.59;;;36.87;0.00
37298;BME280;30517;51.932;4.278;2023-03-04T04:22:49;150992.22;;;36.85;0.00
37298;BME280;30517;51.932;4.278;2023-03-04T04:25:30;150219.94;;;37.02;0.00
37298;BME280;30517;51.932;4.278;2023-03-04T04:28:11;150147.66;;;37.04;0.00
37298;BME280;30517;51.932;4.278;2023-03-04T04:30:52;150186.22;;;37.03;0.00
37298;BME280;30517;51.932;4.278;2023-03-04T04:33:33;150219.94;;;37.02;0.00
37298;BME280;30517;51.932;4.278;2023-03-04T04:36:15;150871.63;;;36.89;0.00
37298;BME280;30517;51.932;4.278;2023-03-04T04:38:56;150147.66;;;37.04;0.00
37298;BME280;30517;51.932;4.278;2023-03-04T04:41:41;150186.22;;;37.03;0.00
37298;BME280;30517;51.932;4.278;2023-03-04T04:44:22;150147.66;;;37.04;0.00
37298;BME280;30517;51.932;4.278;2023-03-04T04:47:04;150199.72;;;37.03;0.00
37298;BME280;30517;51.932;4.278;2023-03-04T04:49:46;150286.31;;;37.01;0.00
37298;BME280;30517;51.932;4.278;2023-03-04T04:52:26;150226.69;;;37.02;0.00
37298;BME280;30517;51.932;4.278;2023-03-04T04:55:08;150240.19;;;37.02;0.00
37298;BME280;30517;51.932;4.278;2023-03-04T04:57:49;150240.19;;;37.02;0.00
37298;BME280;30517;51.932;4.278;2023-03-04T05:00:29;150294.16;;;37.02;0.00
37298;BME280;30517;51.932;4.278;2023-03-04T05:03:10;150337.38;;;37.00;0.00
37298;BME280;30517;51.932;4.278;2023-03-04T05:05:51;150279.66;;;37.02;0.00
37298;BME280;30517;51.932;4.278;2023-03-04T05:08:32;150260.38;;;37.02;0.00
37298;BME280;30517;51.932;4.278;2023-03-04T05:11:14;150286.41;;;37.02;0.00
37298;BME280;30517;51.932;4.278;2023-03-04T05:13:54;150333.72;;;37.02;0.00
37298;BME280;30517;51.932;4.278;2023-03-04T05:16:35;150331.63;;;37.00;0.00
37298;BME280;30517;51.932;4.278;2023-03-04T05:19:16;150630.75;;;36.94;0.00
37298;BME280;30517;51.932;4.278;2023-03-04T05:21:57;150338.38;;;37.00;0.00
37298;BME280;30517;51.932;4.278;2023-03-04T05:24:37;150326.88;;;37.01;0.00
37298;BME280;30517;51.932;4.278;2023-03-04T05:27:18;150299.84;;;37.01;0.00
37298;BME280;30517;51.932;4.278;2023-03-04T05:29:59;150279.66;;;37.02;0.00
37298;BME280;30517;51.932;4.278;2023-03-04T05:32:40;150260.38;;;37.02;0.00
37298;BME280;30517;51.932;4.278;2023-03-04T05:35:21;150338.38;;;37.00;0.00
37298;BME280;30517;51.932;4.278;2023-03-04T05:38:03;150571.09;;;36.95;0.00
37298;BME280;30517;51.932;4.278;2023-03-04T05:40:45;150356.63;;;37.00;0.00
37298;BME280;30517;51.932;4.278;2023-03-04T05:43:27;150370.16;;;37.00;0.00
37298;BME280;30517;51.932;4.278;2023-03-04T05:46:13;150435.59;;;36.98;0.00
37298;BME280;30517;51.932;4.278;2023-03-04T05:48:54;150377.91;;;37.00;0.00
37298;BME280;30517;51.932;4.278;2023-03-04T05:51:35;150357.63;;;37.00;0.00
37298;BME280;30517;51.932;4.278;2023-03-04T05:54:16;150370.16;;;37.00;0.00
37298;BME280;30517;51.932;4.278;2023-03-04T05:56:57;150501.94;;;36.97;0.00
37298;BME280;30517;51.932;4.278;2023-03-04T05:59:37;150495.16;;;36.97;0.00
37298;BME280;30517;51.932;4.278;2023-03-04T06:02:18;150535.72;;;36.97;0.00
37298;BME280;30517;51.932;4.278;2023-03-04T06:04:59;150435.47;;;36.98;0.00
37298;BME280;30517;51.932;4.278;2023-03-04T06:07:43;150488.41;;;36.97;0.00
37298;BME280;30517;51.932;4.278;2023-03-04T06:10:23;150526.91;;;36.96;0.00
37298;BME280;30517;51.932;4.278;2023-03-04T06:13:04;150468.25;;;36.97;0.00
37298;BME280;30517;51.932;4.278;2023-03-04T06:15:45;150320.09;;;37.01;0.00
37298;BME280;30517;51.932;4.278;2023-03-04T06:18:28;150435.47;;;36.98;0.00
37298;BME280;30517;51.932;4.278;2023-03-04T06:21:09;150643.22;;;36.94;0.00
37298;BME280;30517;51.932;4.278;2023-03-04T06:23:50;150755.59;;;36.92;0.00
37298;BME280;30517;51.932;4.278;2023-03-04T06:26:31;150584.63;;;36.95;0.00
37298;BME280;30517;51.932;4.278;2023-03-04T06:29:12;150423.09;;;36.99;0.00
37298;BME280;30517;51.932;4.278;2023-03-04T06:31:53;150389.41;;;36.99;0.00
37298;BME280;30517;51.932;4.278;2023-03-04T06:34:34;150410.69;;;37.00;0.00
37298;BME280;30517;51.932;4.278;2023-03-04T06:37:15;150402.91;;;36.99;0.00
37298;BME280;30517;51.932;4.278;2023-03-04T06:39:56;150436.63;;;36.99;0.00
37298;BME280;30517;51.932;4.278;2023-03-04T06:42:38;150450.13;;;36.99;0.00
37298;BME280;30517;51.932;4.278;2023-03-04T06:45:19;150750.06;;;36.92;0.00
37298;BME280;30517;51.932;4.278;2023-03-04T06:48:00;150469.38;;;36.98;0.00
37298;BME280;30517;51.932;4.278;2023-03-04T06:50:41;150476.13;;;36.98;0.00
37298;BME280;30517;51.932;4.278;2023-03-04T06:53:22;150822.16;;;36.91;0.00
37298;BME280;30517;51.932;4.278;2023-03-04T06:56:03;150535.84;;;36.97;0.00
37298;BME280;30517;51.932;4.278;2023-03-04T06:58:45;150614.66;;;36.96;0.00
37298;BME280;30517;51.932;4.278;2023-03-04T07:01:27;150614.66;;;36.96;0.00
37298;BME280;30517;51.932;4.278;2023-03-04T07:04:08;150686.03;;;36.95;0.00
37298;BME280;30517;51.932;4.278;2023-03-04T07:06:49;150894.38;;;36.90;0.00
37298;BME280;30517;51.932;4.278;2023-03-04T07:09:30;150614.66;;;36.96;0.00
37298;BME280;30517;51.932;4.278;2023-03-04T07:12:11;150569.50;;;36.97;0.00
37298;BME280;30517;51.932;4.278;2023-03-04T07:14:52;150647.41;;;36.95;0.00
37298;BME280;30517;51.932;4.278;2023-03-04T07:17:33;150634.94;;;36.96;0.00
37298;BME280;30517;51.932;4.278;2023-03-04T07:20:14;150927.13;;;36.90;0.00
37298;BME280;30517;51.932;4.278;2023-03-04T07:22:54;150842.44;;;36.91;0.00
37298;BME280;30517;51.932;4.278;2023-03-04T07:25:35;150549.34;;;36.97;0.00
37298;BME280;30517;51.932;4.278;2023-03-04T07:28:16;150491.78;;;37.00;0.00
37298;BME280;30517;51.932;4.278;2023-03-04T07:31:18;150490.66;;;36.99;0.00
37298;BME280;30517;51.932;4.278;2023-03-04T07:34:05;150550.47;;;36.98;0.00
37298;BME280;30517;51.932;4.278;2023-03-04T07:36:46;150557.25;;;36.98;0.00
37298;BME280;30517;51.932;4.278;2023-03-04T07:39:27;150604.44;;;36.98;0.00
37298;BME280;30517;51.932;4.278;2023-03-04T07:42:08;150863.94;;;36.92;0.00
37298;BME280;30517;51.932;4.278;2023-03-04T07:44:49;150571.78;;;36.99;0.00
37298;BME280;30517;51.932;4.278;2023-03-04T07:47:29;150773.78;;;36.95;0.00
37298;BME280;30517;51.932;4.278;2023-03-04T07:50:11;150624.72;;;36.98;0.00
37298;BME280;30517;51.932;4.278;2023-03-04T07:52:52;150597.78;;;36.98;0.00
37298;BME280;30517;51.932;4.278;2023-03-04T07:55:33;150691.19;;;36.97;0.00
37298;BME280;30517;51.932;4.278;2023-03-04T07:58:14;150716.16;;;36.96;0.00
37298;BME280;30517;51.932;4.278;2023-03-04T08:00:58;150664.16;;;36.97;0.00
37298;BME280;30517;51.932;4.278;2023-03-04T08:03:40;150545.84;;;37.00;0.00
37298;BME280;30517;51.932;4.278;2023-03-04T08:06:21;150558.34;;;36.99;0.00
37298;BME280;30517;51.932;4.278;2023-03-04T08:09:04;150598.81;;;36.99;0.00
37298;BME280;30517;51.932;4.278;2023-03-04T08:11:45;150571.88;;;36.99;0.00
37298;BME280;30517;51.932;4.278;2023-03-04T08:14:26;150598.81;;;36.99;0.00
37298;BME280;30517;51.932;4.278;2023-03-04T08:17:07;150760.38;;;36.95;0.00
37298;BME280;30517;51.932;4.278;2023-03-04T08:19:48;150598.81;;;36.99;0.00
37298;BME280;30517;51.932;4.278;2023-03-04T08:22:29;150559.38;;;37.00;0.00
37298;BME280;30517;51.932;4.278;2023-03-04T08:25:10;150508.31;;;37.01;0.00
37298;BME280;30517;51.932;4.278;2023-03-04T08:27:51;150455.25;;;37.01;0.00
37298;BME280;30517;51.932;4.278;2023-03-04T08:30:32;150368.66;;;37.03;0.00
37298;BME280;30517;51.932;4.278;2023-03-04T08:33:12;150449.56;;;37.02;0.00
37298;BME280;30517;51.932;4.278;2023-03-04T08:35:53;150409.03;;;37.02;0.00
37298;BME280;30517;51.932;4.278;2023-03-04T08:38:34;151631.00;;;36.77;0.00
37298;BME280;30517;51.932;4.278;2023-03-04T08:41:15;150572.88;;;37.00;0.00
37298;BME280;30517;51.932;4.278;2023-03-04T08:43:57;150507.31;;;37.00;0.00
37298;BME280;30517;51.932;4.278;2023-03-04T08:46:42;150330.06;;;37.04;0.00
37298;BME280;30517;51.932;4.278;2023-03-04T08:49:23;150310.84;;;37.05;0.00
37298;BME280;30517;51.932;4.278;2023-03-04T08:52:04;150384.13;;;37.04;0.00
37298;BME280;30517;51.932;4.278;2023-03-04T08:54:46;150127.56;;;37.08;0.00
37298;BME280;30517;51.932;4.278;2023-03-04T08:57:27;150048.44;;;37.09;0.00
37298;BME280;30517;51.932;4.278;2023-03-04T09:00:08;150055.19;;;37.09;0.00
37298;BME280;30517;51.932;4.278;2023-03-04T09:02:49;150074.50;;;37.09;0.00
37298;BME280;30517;51.932;4.278;2023-03-04T09:05:31;150014.69;;;37.09;0.00
37298;BME280;30517;51.932;4.278;2023-03-04T09:08:13;150021.44;;;37.09;0.00
37298;BME280;30517;51.932;4.278;2023-03-04T09:10:54;150086.09;;;37.07;0.00
37298;BME280;30517;51.932;4.278;2023-03-04T09:13:35;149843.81;;;37.12;0.00
37298;BME280;30517;51.932;4.278;2023-03-04T09:16:16;149805.13;;;37.13;0.00
37298;BME280;30517;51.932;4.278;2023-03-04T09:18:59;149805.13;;;37.13;0.00
37298;BME280;30517;51.932;4.278;2023-03-04T09:21:40;149639.94;;;37.16;0.00
37298;BME280;30517;51.932;4.278;2023-03-04T09:24:21;149764.63;;;37.13;0.00
37298;BME280;30517;51.932;4.278;2023-03-04T09:27:02;149568.34;;;37.18;0.00
37298;BME280;30517;51.932;4.278;2023-03-04T09:29:43;149914.34;;;37.10;0.00
37298;BME280;30517;51.932;4.278;2023-03-04T09:32:24;149469.72;;;37.20;0.00
37298;BME280;30517;51.932;4.278;2023-03-04T09:35:06;149830.28;;;37.12;0.00
37298;BME280;30517;51.932;4.278;2023-03-04T09:37:49;149763.69;;;37.13;0.00
37298;BME280;30517;51.932;4.278;2023-03-04T09:40:47;149390.34;;;37.21;0.00
37298;BME280;30517;51.932;4.278;2023-03-04T09:43:29;149396.22;;;37.21;0.00
37298;BME280;30517;51.932;4.278;2023-03-04T09:46:14;149284.91;;;37.23;0.00
37298;BME280;30517;51.932;4.278;2023-03-04T09:48:56;149290.78;;;37.22;0.00
37298;BME280;30517;51.932;4.278;2023-03-04T09:51:43;149284.91;;;37.23;0.00
37298;BME280;30517;51.932;4.278;2023-03-04T09:54:36;149198.72;;;37.25;0.00
37298;BME280;30517;51.932;4.278;2023-03-04T09:57:43;149212.22;;;37.25;0.00
37298;BME280;30517;51.932;4.278;2023-03-04T10:00:38;149172.56;;;37.25;0.00
37298;BME280;30517;51.932;4.278;2023-03-04T10:03:23;149100.78;;;37.27;0.00
37298;BME280;30517;51.932;4.278;2023-03-04T10:06:08;149067.88;;;37.27;0.00
37298;BME280;30517;51.932;4.278;2023-03-04T10:08:59;149035.69;;;37.28;0.00
37298;BME280;30517;51.932;4.278;2023-03-04T10:11:47;148908.94;;;37.30;0.00
37298;BME280;30517;51.932;4.278;2023-03-04T10:14:48;149415.69;;;37.20;0.00
37298;BME280;30517;51.932;4.278;2023-03-04T10:17:35;148763.38;;;37.33;0.00
37298;BME280;30517;51.932;4.278;2023-03-04T10:20:21;148723.69;;;37.33;0.00
37298;BME280;30517;51.932;4.278;2023-03-04T10:23:10;148731.22;;;37.34;0.00
37298;BME280;30517;51.932;4.278;2023-03-04T10:25:55;148670.38;;;37.34;0.00
37298;BME280;30517;51.932;4.278;2023-03-04T10:28:36;148566.22;;;37.37;0.00
37298;BME280;30517;51.932;4.278;2023-03-04T10:31:30;148848.13;;;37.30;0.00
37298;BME280;30517;51.932;4.278;2023-03-04T10:34:15;148545.81;;;37.37;0.00
37298;BME280;30517;51.932;4.278;2023-03-04T10:37:05;148399.25;;;37.40;0.00
37298;BME280;30517;51.932;4.278;2023-03-04T10:39:48;148445.84;;;37.39;0.00
37298;BME280;30517;51.932;4.278;2023-03-04T10:42:29;148320.38;;;37.41;0.00
37298;BME280;30517;51.932;4.278;2023-03-04T10:45:22;148538.47;;;37.36;0.00
37298;BME280;30517;51.932;4.278;2023-03-04T10:48:03;148166.94;;;37.44;0.00
37298;BME280;30517;51.932;4.278;2023-03-04T10:50:45;148122.13;;;37.45;0.00
37298;BME280;30517;51.932;4.278;2023-03-04T10:53:32;148193.91;;;37.44;0.00
37298;BME280;30517;51.932;4.278;2023-03-04T10:56:40;148135.59;;;37.45;0.00
37298;BME280;30517;51.932;4.278;2023-03-04T11:05:22;147968.56;;;37.47;0.00
37298;BME280;30517;51.932;4.278;2023-03-04T11:08:03;147896.28;;;37.49;0.00
37298;BME280;30517;51.932;4.278;2023-03-04T11:10:44;147948.38;;;37.47;0.00
37298;BME280;30517;51.932;4.278;2023-03-04T11:13:26;147855.88;;;37.49;0.00
37298;BME280;30517;51.932;4.278;2023-03-04T11:16:24;147643.03;;;37.53;0.00
37298;BME280;30517;51.932;4.278;2023-03-04T11:19:13;147643.69;;;37.54;0.00
37298;BME280;30517;51.932;4.278;2023-03-04T11:21:56;147536.28;;;37.55;0.00
37298;BME280;30517;51.932;4.278;2023-03-04T11:24:38;147456.19;;;37.56;0.00
37298;BME280;30517;51.932;4.278;2023-03-04T11:27:37;147383.09;;;37.58;0.00
37298;BME280;30517;51.932;4.278;2023-03-04T11:30:40;147296.50;;;37.59;0.00
37298;BME280;30517;51.932;4.278;2023-03-04T11:33:32;147190.56;;;37.61;0.00
37298;BME280;30517;51.932;4.278;2023-03-04T11:39:25;147030.16;;;37.63;0.00
37298;BME280;30517;51.932;4.278;2023-03-04T11:45:25;146922.59;;;37.65;0.00
37298;BME280;30517;51.932;4.278;2023-03-04T11:50:56;146768.97;;;37.68;0.00
37298;BME280;30517;51.932;4.278;2023-03-04T11:57:45;147788.50;;;37.49;0.00
37298;BME280;30517;51.932;4.278;2023-03-04T12:00:38;146583.63;;;37.72;0.00
37298;BME280;30517;51.932;4.278;2023-03-04T12:06:34;146481.91;;;37.73;0.00
37298;BME280;30517;51.932;4.278;2023-03-04T12:13:11;146241.19;;;37.77;0.00
37298;BME280;30517;51.932;4.278;2023-03-04T12:22:43;145839.84;;;37.84;0.00
37298;BME280;30517;51.932;4.278;2023-03-04T12:25:51;145933.03;;;37.82;0.00
37298;BME280;30517;51.932;4.278;2023-03-04T12:28:55;145645.25;;;37.87;0.00
37298;BME280;30517;51.932;4.278;2023-03-04T12:31:40;145430.72;;;37.91;0.00
37298;BME280;30517;51.932;4.278;2023-03-04T12:34:43;146321.34;;;37.72;0.00
37298;BME280;30517;51.932;4.278;2023-03-04T12:46:30;145155.31;;;37.96;0.00
37298;BME280;30517;51.932;4.278;2023-03-04T12:49:27;145215.97;;;37.95;0.00
37298;BME280;30517;51.932;4.278;2023-03-04T12:55:16;144912.88;;;38.01;0.00
37298;BME280;30517;51.932;4.278;2023-03-04T12:57:58;144839.09;;;38.02;0.00
37298;BME280;30517;51.932;4.278;2023-03-04T13:00:59;144764.38;;;38.03;0.00
37298;BME280;30517;51.932;4.278;2023-03-04T13:03:57;144730.81;;;38.03;0.00
37298;BME280;30517;51.932;4.278;2023-03-04T13:07:06;144596.28;;;38.06;0.00
37298;BME280;30517;51.932;4.278;2023-03-04T13:09:54;144454.69;;;38.08;0.00
37298;BME280;30517;51.932;4.278;2023-03-04T13:12:49;144339.88;;;38.10;0.00
37298;BME280;30517;51.932;4.278;2023-03-04T13:15:36;144353.31;;;38.10;0.00
37298;BME280;30517;51.932;4.278;2023-03-04T13:23:52;144164.16;;;38.14;0.00
37298;BME280;30517;51.932;4.278;2023-03-04T13:26:34;143975.28;;;38.17;0.00
37298;BME280;30517;51.932;4.278;2023-03-04T13:32:10;143806.19;;;38.19;0.00
37298;BME280;30517;51.932;4.278;2023-03-04T13:34:52;143948.22;;;38.16;0.00
37298;BME280;30517;51.932;4.278;2023-03-04T13:37:35;144076.97;;;38.14;0.00
37298;BME280;30517;51.932;4.278;2023-03-04T13:43:23;143514.97;;;38.24;0.00
37298;BME280;30517;51.932;4.278;2023-03-04T13:46:41;143467.28;;;38.25;0.00
37298;BME280;30517;51.932;4.278;2023-03-04T13:49:22;143433.94;;;38.25;0.00
37298;BME280;30517;51.932;4.278;2023-03-04T13:55:36;143406.38;;;38.26;0.00
37298;BME280;30517;51.932;4.278;2023-03-04T13:58:25;143272.28;;;38.28;0.00
37298;BME280;30517;51.932;4.278;2023-03-04T14:01:23;143183.94;;;38.29;0.00
37298;BME280;30517;51.932;4.278;2023-03-04T14:07:36;143060.56;;;38.32;0.00
37298;BME280;30517;51.932;4.278;2023-03-04T14:10:23;143007.25;;;38.33;0.00
37298;BME280;30517;51.932;4.278;2023-03-04T14:13:05;143048.00;;;38.32;0.00
37298;BME280;30517;51.932;4.278;2023-03-04T14:15:53;142545.34;;;38.41;0.00
37298;BME280;30517;51.932;4.278;2023-03-04T14:18:35;142824.19;;;38.35;0.00
37298;BME280;30517;51.932;4.278;2023-03-04T14:21:17;142695.63;;;38.37;0.00
37298;BME280;30517;51.932;4.278;2023-03-04T14:24:00;142121.88;;;38.49;0.00
37298;BME280;30517;51.932;4.278;2023-03-04T14:26:41;141977.66;;;38.52;0.00
37298;BME280;30517;51.932;4.278;2023-03-04T14:29:28;141876.41;;;38.53;0.00
37298;BME280;30517;51.932;4.278;2023-03-04T14:32:10;141685.22;;;38.57;0.00
37298;BME280;30517;51.932;4.278;2023-03-04T14:34:56;141589.56;;;38.58;0.00
37298;BME280;30517;51.932;4.278;2023-03-04T14:37:43;141671.84;;;38.57;0.00
37298;BME280;30517;51.932;4.278;2023-03-04T14:40:32;141917.47;;;38.52;0.00
37298;BME280;30517;51.932;4.278;2023-03-04T14:43:18;141431.66;;;38.61;0.00
37298;BME280;30517;51.932;4.278;2023-03-04T14:46:00;141302.44;;;38.63;0.00
37298;BME280;30517;51.932;4.278;2023-03-04T14:48:48;142860.31;;;38.32;0.00
37298;BME280;30517;51.932;4.278;2023-03-04T14:51:38;141068.66;;;38.68;0.00
37298;BME280;30517;51.932;4.278;2023-03-04T14:54:36;141097.41;;;38.67;0.00
37298;BME280;30517;51.932;4.278;2023-03-04T14:57:25;140697.13;;;38.75;0.00
37298;BME280;30517;51.932;4.278;2023-03-04T15:03:27;140224.72;;;38.83;0.00
37298;BME280;30517;51.932;4.278;2023-03-04T15:06:20;140149.75;;;38.84;0.00
37298;BME280;30517;51.932;4.278;2023-03-04T15:09:04;140024.50;;;38.87;0.00
37298;BME280;30517;51.932;4.278;2023-03-04T15:12:01;139948.50;;;38.88;0.00
37298;BME280;30517;51.932;4.278;2023-03-04T15:14:57;139748.31;;;38.91;0.00
37298;BME280;30517;51.932;4.278;2023-03-04T15:17:39;139694.44;;;38.92;0.00
37298;BME280;30517;51.932;4.278;2023-03-04T15:20:25;139652.94;;;38.93;0.00
37298;BME280;30517;51.932;4.278;2023-03-04T15:23:06;139460.16;;;38.96;0.00
37298;BME280;30517;51.932;4.278;2023-03-04T15:25:57;139710.47;;;38.91;0.00
37298;BME280;30517;51.932;4.278;2023-03-04T15:28:40;139224.72;;;39.01;0.00
37298;BME280;30517;51.932;4.278;2023-03-04T15:31:22;139149.50;;;39.02;0.00
37298;BME280;30517;51.932;4.278;2023-03-04T15:34:09;139058.66;;;39.03;0.00